createdAt,value
2018-06-12T00:00:51.522Z,7.90
2018-06-12T00:03:18.995Z,8.23
2018-06-12T00:05:46.379Z,8.50
2018-06-12T00:08:13.795Z,8.00
2018-06-12T00:10:41.195Z,8.33
2018-06-12T00:13:08.660Z,8.43
2018-06-12T00:15:36.047Z,8.10
2018-06-12T00:18:03.661Z,8.50
2018-06-12T00:20:31.075Z,8.37
2018-06-12T00:22:58.576Z,8.47
2018-06-12T00:25:25.991Z,7.63
2018-06-12T00:27:53.563Z,7.70
2018-06-12T00:30:20.972Z,6.77
2018-06-12T00:32:48.404Z,6.37
2018-06-12T00:35:15.791Z,7.23
2018-06-12T00:37:43.217Z,7.10
2018-06-12T00:40:10.599Z,6.60
2018-06-12T00:42:38.245Z,6.83
2018-06-12T00:45:05.680Z,8.40
2018-06-12T00:47:33.218Z,5.50
2018-06-12T00:50:00.627Z,7.80
2018-06-12T00:52:28.019Z,7.37
2018-06-12T00:54:55.408Z,6.83
2018-06-12T00:57:22.787Z,6.67
2018-06-12T00:59:50.223Z,7.27
2018-06-12T01:02:17.635Z,6.60
2018-06-12T01:04:45.113Z,7.10
2018-06-12T01:07:12.529Z,7.00
2018-06-12T01:09:39.907Z,7.27
2018-06-12T01:12:07.399Z,7.37
2018-06-12T01:14:34.880Z,7.13
2018-06-12T01:17:02.329Z,6.90
2018-06-12T01:19:29.775Z,6.53
2018-06-12T01:21:57.239Z,7.43
2018-06-12T01:24:24.627Z,6.70
2018-06-12T01:26:52.211Z,7.00
2018-06-12T01:29:19.664Z,5.87
2018-06-12T01:31:47.360Z,5.30
2018-06-12T01:34:14.819Z,5.57
2018-06-12T01:36:42.241Z,5.50
2018-06-12T01:39:09.635Z,5.90
2018-06-12T01:41:37.231Z,5.57
2018-06-12T01:44:04.655Z,5.10
2018-06-12T01:46:32.059Z,5.07
2018-06-12T01:49:00.507Z,4.93
2018-06-12T01:51:27.896Z,5.50
2018-06-12T01:53:55.403Z,5.20
2018-06-12T01:56:22.859Z,4.63
2018-06-12T01:58:50.251Z,4.43
2018-06-12T02:01:17.805Z,4.97
2018-06-12T02:03:45.180Z,4.70
2018-06-12T02:06:14.179Z,4.70
2018-06-12T02:08:41.976Z,4.73
2018-06-12T02:11:09.526Z,4.57
2018-06-12T02:13:36.921Z,4.50
2018-06-12T02:16:04.331Z,4.90
2018-06-12T02:18:31.728Z,5.10
2018-06-12T02:20:59.115Z,4.93
2018-06-12T02:23:26.519Z,4.63
2018-06-12T02:25:54.409Z,4.97
2018-06-12T02:28:21.803Z,4.80
2018-06-12T02:30:49.211Z,4.53
2018-06-12T02:33:16.628Z,4.77
2018-06-12T02:35:44.006Z,5.03
2018-06-12T02:38:11.404Z,4.77
2018-06-12T02:40:38.928Z,4.83
2018-06-12T02:43:06.383Z,5.43
2018-06-12T02:45:33.863Z,4.47
2018-06-12T02:48:01.301Z,5.00
2018-06-12T02:50:28.703Z,4.97
2018-06-12T02:52:56.288Z,4.50
2018-06-12T02:55:23.671Z,5.03
2018-06-12T02:57:51.127Z,4.43
2018-06-12T03:00:18.501Z,4.80
2018-06-12T03:02:45.901Z,4.70
2018-06-12T03:05:13.495Z,4.03
2018-06-12T03:07:41.950Z,4.50
2018-06-12T03:10:09.339Z,4.13
2018-06-12T03:12:37.391Z,4.20
2018-06-12T03:15:04.887Z,4.57
2018-06-12T03:17:32.897Z,4.13
2018-06-12T03:20:00.379Z,4.57
2018-06-12T03:22:28.459Z,3.80
2018-06-12T03:24:55.919Z,4.30
2018-06-12T03:27:23.374Z,4.30
2018-06-12T03:29:50.823Z,4.23
2018-06-12T03:32:18.296Z,4.10
2018-06-12T03:34:45.767Z,3.90
2018-06-12T03:37:13.275Z,3.83
2018-06-12T03:39:40.651Z,4.53
2018-06-12T03:42:08.065Z,4.87
2018-06-12T03:44:35.646Z,4.17
2018-06-12T03:47:03.067Z,3.93
2018-06-12T03:49:30.492Z,3.67
2018-06-12T03:51:57.885Z,3.60
2018-06-12T03:54:25.304Z,3.70
2018-06-12T03:56:52.707Z,3.80
2018-06-12T03:59:20.118Z,3.53
2018-06-12T04:01:47.495Z,3.60
2018-06-12T04:04:14.871Z,3.80
2018-06-12T04:06:42.452Z,3.17
2018-06-12T04:09:10.217Z,3.73
2018-06-12T04:11:38.265Z,3.73
2018-06-12T04:14:05.672Z,3.40
2018-06-12T04:16:35.971Z,3.23
2018-06-12T04:19:03.878Z,3.47
2018-06-12T04:21:31.260Z,3.47
2018-06-12T04:24:00.448Z,3.47
2018-06-12T04:26:27.867Z,3.13
2018-06-12T04:28:55.254Z,3.10
2018-06-12T04:31:23.373Z,3.30
2018-06-12T04:33:50.851Z,3.30
2018-06-12T04:36:18.283Z,3.40
2018-06-12T04:38:45.842Z,3.00
2018-06-12T04:41:14.279Z,3.30
2018-06-12T04:43:41.726Z,2.77
2018-06-12T04:46:09.465Z,3.03
2018-06-12T04:48:37.063Z,3.30
2018-06-12T04:51:04.432Z,2.90
2018-06-12T04:53:31.839Z,2.87
2018-06-12T04:55:59.405Z,3.00
2018-06-12T04:58:26.930Z,2.50
2018-06-12T05:00:54.346Z,3.27
2018-06-12T05:03:22.687Z,2.80
2018-06-12T05:05:51.601Z,2.90
2018-06-12T05:08:20.438Z,2.67
2018-06-12T05:10:49.996Z,2.50
2018-06-12T05:13:17.435Z,2.53
2018-06-12T05:15:44.954Z,2.50
2018-06-12T05:18:12.742Z,2.60
2018-06-12T05:20:40.376Z,2.27
2018-06-12T05:23:08.499Z,2.40
2018-06-12T05:25:36.477Z,2.40
2018-06-12T05:28:03.965Z,2.17
2018-06-12T05:30:32.748Z,2.40
2018-06-12T05:33:00.162Z,2.30
2018-06-12T05:35:28.353Z,2.47
2018-06-12T05:37:56.254Z,2.30
2018-06-12T05:40:23.677Z,2.37
2018-06-12T05:42:52.333Z,2.50
2018-06-12T05:45:20.707Z,2.30
2018-06-12T05:47:48.387Z,2.30
2018-06-12T05:50:15.913Z,2.30
2018-06-12T05:52:43.603Z,2.50
2018-06-12T05:55:11.031Z,2.27
2018-06-12T05:57:38.475Z,2.30
2018-06-12T06:00:06.947Z,2.50
2018-06-12T06:04:03.910Z,2.13
2018-06-12T06:06:32.683Z,2.00
2018-06-12T06:09:00.365Z,2.10
2018-06-12T06:11:28.242Z,2.00
2018-06-12T06:13:56.828Z,2.27
2018-06-12T06:16:24.720Z,2.40
2018-06-12T06:18:52.183Z,2.23
2018-06-12T06:21:19.839Z,2.10
2018-06-12T06:23:47.287Z,2.13
2018-06-12T06:26:15.371Z,2.07
2018-06-12T06:28:42.966Z,2.23
2018-06-12T06:31:10.363Z,2.10
2018-06-12T06:33:37.863Z,2.10
2018-06-12T06:36:05.351Z,1.83
2018-06-12T06:38:33.459Z,1.90
2018-06-12T06:41:01.179Z,2.20
2018-06-12T06:43:28.723Z,2.10
2018-06-12T06:45:56.205Z,2.20
2018-06-12T06:48:23.636Z,2.17
2018-06-12T06:50:51.008Z,2.27
2018-06-12T06:53:19.176Z,1.80
2018-06-12T06:55:46.591Z,1.80
2018-06-12T06:58:14.944Z,2.10
2018-06-12T07:00:42.427Z,2.00
2018-06-12T07:03:09.808Z,2.20
2018-06-12T07:05:37.312Z,1.60
2018-06-12T07:08:04.721Z,1.90
2018-06-12T07:10:32.224Z,1.70
2018-06-12T07:12:59.611Z,1.77
2018-06-12T07:15:27.139Z,1.90
2018-06-12T07:17:54.575Z,1.60
2018-06-12T07:21:31.118Z,1.83
2018-06-12T07:23:58.559Z,2.10
2018-06-12T07:26:26.190Z,2.00
2018-06-12T07:28:53.853Z,1.90
2018-06-12T07:31:22.031Z,1.73
2018-06-12T07:33:49.482Z,1.73
2018-06-12T07:36:16.867Z,1.70
2018-06-12T07:38:44.603Z,1.70
2018-06-12T07:41:13.403Z,1.80
2018-06-12T07:43:41.322Z,1.80
2018-06-12T07:46:08.837Z,1.50
2018-06-12T07:48:37.519Z,1.40
2018-06-12T07:51:04.919Z,1.63
2018-06-12T07:53:32.520Z,1.50
2018-06-12T07:56:00.099Z,1.70
2018-06-12T07:58:27.548Z,1.50
2018-06-12T08:00:56.662Z,1.77
2018-06-12T08:03:25.114Z,1.63
2018-06-12T08:05:53.212Z,1.83
2018-06-12T08:08:20.863Z,1.70
2018-06-12T08:10:48.452Z,1.40
2018-06-12T08:13:16.700Z,1.70
2018-06-12T08:15:44.160Z,1.70
2018-06-12T08:18:11.951Z,1.57
2018-06-12T08:20:44.069Z,1.70
2018-06-12T08:23:11.833Z,1.60
2018-06-12T08:25:39.273Z,1.43
2018-06-12T08:28:07.569Z,1.60
2018-06-12T08:30:35.060Z,1.60
2018-06-12T08:33:02.504Z,2.10
2018-06-12T08:35:30.057Z,1.50
2018-06-12T08:37:57.440Z,1.50
2018-06-12T08:40:24.868Z,1.40
2018-06-12T08:42:52.515Z,1.63
2018-06-12T08:45:19.908Z,1.60
2018-06-12T08:47:47.374Z,1.27
2018-06-12T08:50:14.781Z,1.40
2018-06-12T08:52:42.225Z,1.30
2018-06-12T08:55:09.829Z,1.40
2018-06-12T08:57:37.360Z,1.70
2018-06-12T09:00:04.829Z,1.30
2018-06-12T09:02:32.619Z,1.40
2018-06-12T09:04:59.991Z,1.30
2018-06-12T09:07:27.417Z,1.77
2018-06-12T09:09:55.799Z,1.67
2018-06-12T09:12:23.225Z,1.80
2018-06-12T09:14:50.631Z,1.70
2018-06-12T09:17:18.120Z,1.60
2018-06-12T09:19:46.475Z,1.20
2018-06-12T09:22:14.003Z,1.23
2018-06-12T09:24:42.383Z,1.40
2018-06-12T09:27:10.222Z,1.43
2018-06-12T09:29:37.679Z,1.50
2018-06-12T09:32:05.803Z,1.50
2018-06-12T09:34:33.188Z,1.50
2018-06-12T09:37:00.667Z,1.43
2018-06-12T09:39:28.376Z,1.47
2018-06-12T09:41:55.855Z,1.40
2018-06-12T09:44:23.261Z,1.50
2018-06-12T09:46:51.824Z,1.60
2018-06-12T09:49:20.324Z,1.40
2018-06-12T09:51:47.777Z,1.20
2018-06-12T09:54:15.237Z,1.40
2018-06-12T09:56:43.019Z,1.30
2018-06-12T09:59:10.503Z,1.20
2018-06-12T10:01:37.915Z,1.40
2018-06-12T10:04:05.465Z,1.30
2018-06-12T10:06:32.859Z,1.77
2018-06-12T10:09:00.369Z,1.40
2018-06-12T10:11:27.868Z,1.60
2018-06-12T10:13:55.388Z,1.20
2018-06-12T10:16:23.460Z,1.30
2018-06-12T10:18:50.906Z,1.40
2018-06-12T10:21:18.474Z,1.40
2018-06-12T10:23:45.983Z,1.80
2018-06-12T10:26:13.640Z,1.63
2018-06-12T10:28:41.819Z,1.40
2018-06-12T10:31:09.224Z,1.30
2018-06-12T10:33:36.699Z,1.60
2018-06-12T10:36:04.553Z,1.40
2018-06-12T10:38:31.971Z,1.30
2018-06-12T10:41:00.335Z,1.60
2018-06-12T10:43:27.728Z,1.30
2018-06-12T10:45:56.062Z,1.20
2018-06-12T10:48:23.727Z,1.40
2018-06-12T10:50:51.927Z,1.50
2018-06-12T10:53:20.341Z,1.50
2018-06-12T10:55:47.743Z,1.40
2018-06-12T10:58:15.363Z,1.40
2018-06-12T11:00:42.802Z,1.30
2018-06-12T11:03:10.365Z,1.33
2018-06-12T11:05:38.707Z,1.33
2018-06-12T11:08:06.257Z,1.30
2018-06-12T11:10:33.897Z,1.33
2018-06-12T11:13:01.424Z,1.70
2018-06-12T11:15:29.418Z,1.50
2018-06-12T11:17:56.888Z,1.27
2018-06-12T11:20:24.348Z,1.30
2018-06-12T11:22:52.112Z,1.40
2018-06-12T11:25:19.509Z,1.20
2018-06-12T11:27:47.516Z,1.10
2018-06-12T11:30:14.967Z,1.23
2018-06-12T11:32:42.511Z,1.43
2018-06-12T11:35:11.197Z,1.40
2018-06-12T11:37:38.655Z,1.20
2018-06-12T11:40:06.334Z,1.20
2018-06-12T11:42:33.752Z,1.20
2018-06-12T11:45:01.140Z,1.30
2018-06-12T11:47:28.993Z,1.40
2018-06-12T11:49:57.040Z,1.40
2018-06-12T11:52:24.454Z,1.47
2018-06-12T11:54:51.916Z,1.50
2018-06-12T11:57:19.328Z,1.37
2018-06-12T11:59:46.766Z,1.20
2018-06-12T12:02:16.192Z,1.60
2018-06-12T12:04:45.017Z,1.50
2018-06-12T12:07:13.715Z,1.40
2018-06-12T12:09:41.220Z,1.47
2018-06-12T12:12:08.719Z,1.10
2018-06-12T12:14:36.107Z,1.27
2018-06-12T12:17:03.582Z,1.40
2018-06-12T12:19:31.499Z,1.43
2018-06-12T12:22:00.086Z,1.50
2018-06-12T12:24:27.710Z,1.53
2018-06-12T12:26:55.092Z,1.50
2018-06-12T12:29:22.535Z,1.50
2018-06-12T12:31:50.031Z,1.30
2018-06-12T12:34:17.463Z,1.37
2018-06-12T12:36:44.843Z,1.40
2018-06-12T12:39:12.365Z,1.10
2018-06-12T12:41:39.907Z,1.40
2018-06-12T12:44:07.315Z,1.10
2018-06-12T12:46:34.821Z,1.40
2018-06-12T12:49:02.212Z,1.20
2018-06-12T12:51:29.735Z,1.50
2018-06-12T12:53:57.105Z,1.20
2018-06-12T12:56:24.606Z,1.30
2018-06-12T12:58:52.975Z,1.40
2018-06-12T13:01:20.362Z,1.30
2018-06-12T13:03:47.783Z,1.20
2018-06-12T13:06:15.402Z,1.50
2018-06-12T13:08:42.807Z,1.50
2018-06-12T13:11:10.224Z,1.20
2018-06-12T13:13:37.615Z,1.20
2018-06-12T13:16:05.346Z,1.17
2018-06-12T13:18:32.765Z,1.27
2018-06-12T13:21:00.175Z,1.30
2018-06-12T13:23:27.676Z,1.43
2018-06-12T13:25:55.091Z,1.30
2018-06-12T13:28:22.476Z,1.30
2018-06-12T13:30:51.307Z,1.50
2018-06-12T13:33:19.050Z,1.30
2018-06-12T13:35:46.484Z,1.20
2018-06-12T13:38:13.883Z,1.20
2018-06-12T13:40:41.444Z,1.53
2018-06-12T13:43:08.823Z,1.13
2018-06-12T13:45:36.236Z,1.20
2018-06-12T13:48:04.048Z,1.30
2018-06-12T13:50:33.895Z,1.13
2018-06-12T13:53:02.184Z,1.30
2018-06-12T13:55:31.205Z,1.20
2018-06-12T13:58:00.229Z,1.20
2018-06-12T14:00:29.693Z,1.17
2018-06-12T14:02:58.756Z,1.10
2018-06-12T14:05:26.351Z,1.30
2018-06-12T14:07:53.757Z,1.20
2018-06-12T14:10:21.199Z,1.10
2018-06-12T14:12:48.595Z,1.30
2018-06-12T14:15:16.028Z,1.40
2018-06-12T14:17:43.495Z,1.20
2018-06-12T14:20:18.590Z,1.23
2018-06-12T14:22:48.556Z,1.40
2018-06-12T14:25:15.962Z,1.13
2018-06-12T14:27:43.395Z,1.30
2018-06-12T14:30:12.451Z,1.20
2018-06-12T14:32:39.888Z,1.20
2018-06-12T14:35:09.395Z,1.20
2018-06-12T14:37:40.606Z,1.30
2018-06-12T14:40:08.115Z,1.30
2018-06-12T14:42:36.692Z,1.40
2018-06-12T14:45:05.075Z,1.33
2018-06-12T14:47:34.566Z,1.20
2018-06-12T14:50:03.506Z,1.30
2018-06-12T14:52:31.352Z,1.20
2018-06-12T14:57:31.327Z,1.13
2018-06-12T15:00:03.342Z,1.20
2018-06-12T15:02:30.863Z,1.10
2018-06-12T15:04:58.272Z,1.00
2018-06-12T15:07:25.683Z,1.20
2018-06-12T15:09:53.410Z,1.00
2018-06-12T15:12:20.800Z,1.10
2018-06-12T15:14:48.864Z,1.20
2018-06-12T15:17:16.272Z,1.10
2018-06-12T15:19:43.705Z,1.27
2018-06-12T15:22:11.124Z,1.10
2018-06-12T15:24:38.512Z,1.07
2018-06-12T15:27:06.127Z,1.30
2018-06-12T15:29:33.623Z,1.10
2018-06-12T15:32:01.138Z,1.20
2018-06-12T15:34:28.579Z,1.10
2018-06-12T15:36:55.970Z,1.17
2018-06-12T15:39:23.537Z,1.60
2018-06-12T15:41:51.100Z,1.30
2018-06-12T15:44:19.391Z,1.40
2018-06-12T15:46:47.704Z,1.27
2018-06-12T15:49:15.775Z,1.30
2018-06-12T15:51:44.380Z,1.10
2018-06-12T15:54:12.410Z,1.20
2018-06-12T15:56:41.771Z,1.10
2018-06-12T15:59:09.988Z,1.30
2018-06-12T16:01:37.662Z,1.30
2018-06-12T16:04:05.105Z,1.30
2018-06-12T16:06:32.491Z,1.20
2018-06-12T16:09:00.371Z,1.07
2018-06-12T16:11:28.419Z,1.00
2018-06-12T16:13:58.172Z,1.10
2018-06-12T16:16:26.018Z,1.20
2018-06-12T16:18:54.159Z,1.47
2018-06-12T16:21:21.884Z,1.50
2018-06-12T16:23:49.955Z,1.60
2018-06-12T16:26:18.064Z,1.10
2018-06-12T16:28:45.815Z,1.20
2018-06-12T16:31:14.555Z,1.10
2018-06-12T16:33:44.365Z,1.27
2018-06-12T16:36:12.827Z,1.23
2018-06-12T16:38:41.103Z,1.40
2018-06-12T16:41:08.559Z,1.27
2018-06-12T16:43:36.439Z,1.30
2018-06-12T16:46:03.816Z,1.17
2018-06-12T16:48:31.778Z,1.10
2018-06-12T16:50:59.750Z,1.10
2018-06-12T16:53:27.127Z,1.20
2018-06-12T16:55:55.485Z,1.30
2018-06-12T16:58:22.887Z,1.10
2018-06-12T17:00:50.354Z,1.27
2018-06-12T17:03:17.878Z,1.00
2018-06-12T17:05:45.267Z,1.20
2018-06-12T17:08:12.660Z,1.10
2018-06-12T17:10:40.382Z,1.03
2018-06-12T17:13:08.107Z,1.00
2018-06-12T17:15:35.564Z,0.90
2018-06-12T17:18:03.096Z,1.30
2018-06-12T17:20:31.668Z,1.00
2018-06-12T17:22:59.775Z,0.90
2018-06-12T17:25:27.263Z,1.17
2018-06-12T17:27:56.053Z,1.00
2018-06-12T17:30:23.587Z,1.10
2018-06-12T17:32:52.062Z,1.10
2018-06-12T17:35:20.117Z,0.97
2018-06-12T17:37:47.843Z,0.90
2018-06-12T17:40:15.347Z,0.90
2018-06-12T17:42:43.459Z,1.10
2018-06-12T17:45:10.975Z,0.80
2018-06-12T17:47:38.425Z,0.90
2018-06-12T17:50:06.120Z,0.90
2018-06-12T17:52:33.543Z,0.83
2018-06-12T17:55:00.995Z,0.90
2018-06-12T17:57:28.467Z,1.00
2018-06-12T17:59:56.877Z,0.93
2018-06-12T18:02:24.739Z,0.90
2018-06-12T18:04:52.560Z,0.90
2018-06-12T18:07:20.251Z,1.00
2018-06-12T18:09:47.665Z,0.97
2018-06-12T18:12:15.767Z,1.10
2018-06-12T18:14:43.190Z,1.00
2018-06-12T18:17:10.611Z,1.00
2018-06-12T18:19:38.272Z,0.87
2018-06-12T18:22:05.907Z,1.03
2018-06-12T18:24:33.761Z,0.93
2018-06-12T18:27:01.787Z,1.00
2018-06-12T18:29:29.203Z,0.80
2018-06-12T18:31:57.395Z,0.90
2018-06-12T18:34:24.796Z,0.80
2018-06-12T18:36:52.179Z,0.90
2018-06-12T18:39:19.647Z,1.13
2018-06-12T18:41:47.745Z,0.80
2018-06-12T18:44:15.277Z,0.90
2018-06-12T18:46:42.799Z,0.93
2018-06-12T18:49:10.251Z,0.80
2018-06-12T18:51:37.826Z,0.90
2018-06-12T18:54:05.404Z,1.10
2018-06-12T18:56:32.831Z,0.70
2018-06-12T18:59:00.387Z,0.90
2018-06-12T19:01:27.780Z,0.73
2018-06-12T19:03:55.191Z,0.80
2018-06-12T19:06:22.770Z,0.80
2018-06-12T19:08:50.479Z,0.80
2018-06-12T19:11:19.106Z,0.87
2018-06-12T19:13:46.593Z,0.67
2018-06-12T19:16:14.035Z,0.80
2018-06-12T19:18:41.571Z,0.90
2018-06-12T19:21:09.886Z,0.90
2018-06-12T19:23:37.537Z,0.90
2018-06-12T19:26:04.971Z,0.90
2018-06-12T19:28:33.506Z,0.90
2018-06-12T19:31:01.051Z,1.00
2018-06-12T19:33:28.527Z,0.90
2018-06-12T19:35:55.959Z,1.07
2018-06-12T19:38:23.352Z,0.87
2018-06-12T19:40:50.761Z,0.97
2018-06-12T19:43:18.241Z,0.93
2018-06-12T19:45:45.627Z,0.90
2018-06-12T19:48:13.043Z,1.10
2018-06-12T19:50:40.455Z,0.90
2018-06-12T19:53:07.859Z,1.03
2018-06-12T19:55:35.237Z,1.57
2018-06-12T19:58:02.867Z,1.50
2018-06-12T20:00:30.302Z,1.83
2018-06-12T20:02:57.791Z,1.80
2018-06-12T20:05:25.167Z,2.10
2018-06-12T20:07:52.540Z,1.57
2018-06-12T20:10:20.157Z,1.20
2018-06-12T20:12:47.644Z,1.47
2018-06-12T20:15:15.019Z,1.40
2018-06-12T20:17:42.587Z,1.33
2018-06-12T20:20:09.995Z,1.10
2018-06-12T20:22:37.371Z,1.30
2018-06-12T20:25:04.767Z,1.10
2018-06-12T20:27:32.355Z,1.10
2018-06-12T20:29:59.812Z,1.10
2018-06-12T20:32:27.223Z,1.03
2018-06-12T20:34:54.855Z,0.90
2018-06-12T20:37:22.287Z,1.10
2018-06-12T20:39:49.763Z,0.80
2018-06-12T20:42:17.141Z,0.97
2018-06-12T20:44:44.537Z,1.50
2018-06-12T20:47:12.148Z,0.80
2018-06-12T20:49:39.516Z,1.00
2018-06-12T20:52:07.033Z,0.80
2018-06-12T20:54:34.418Z,1.00
2018-06-12T20:57:01.961Z,1.10
2018-06-12T20:59:29.433Z,1.10
2018-06-12T21:01:56.871Z,0.80
2018-06-12T21:04:24.294Z,0.70
2018-06-12T21:06:51.769Z,1.00
2018-06-12T21:09:19.132Z,1.07
2018-06-12T21:11:46.611Z,1.00
2018-06-12T21:14:13.999Z,1.20
2018-06-12T21:16:41.387Z,1.00
2018-06-12T21:19:08.771Z,0.90
2018-06-12T21:21:36.171Z,1.00
2018-06-12T21:24:04.099Z,0.90
2018-06-12T21:26:31.486Z,0.90
2018-06-12T21:28:58.864Z,1.10
2018-06-12T21:31:26.338Z,1.00
2018-06-12T21:33:53.710Z,1.10
2018-06-12T21:36:21.186Z,0.93
2018-06-12T21:38:48.570Z,1.10
2018-06-12T21:41:16.059Z,1.03
2018-06-12T21:43:43.530Z,0.80
2018-06-12T21:46:11.069Z,0.83
2018-06-12T21:48:38.470Z,1.00
2018-06-12T21:51:05.893Z,0.80
2018-06-12T21:53:33.263Z,0.90
2018-06-12T21:56:01.450Z,1.10
2018-06-12T21:58:28.825Z,0.80
2018-06-12T22:00:56.364Z,0.80
2018-06-12T22:03:23.760Z,0.90
2018-06-12T22:05:51.257Z,0.80
2018-06-12T22:08:18.620Z,1.10
2018-06-12T22:10:46.779Z,0.90
2018-06-12T22:13:14.872Z,0.80
2018-06-12T22:15:42.496Z,0.87
2018-06-12T22:18:09.875Z,0.80
2018-06-12T22:20:37.323Z,0.93
2018-06-12T22:23:04.775Z,0.90
2018-06-12T22:25:32.236Z,0.90
2018-06-12T22:27:59.781Z,0.90
2018-06-12T22:30:27.147Z,1.00
2018-06-12T22:32:54.915Z,0.90
2018-06-12T22:35:22.326Z,0.80
2018-06-12T22:37:50.383Z,0.80
2018-06-12T22:40:17.899Z,0.90
2018-06-12T22:42:45.383Z,1.17
2018-06-12T22:45:12.784Z,0.80
2018-06-12T22:47:40.267Z,0.80
2018-06-12T22:50:07.638Z,1.00
2018-06-12T22:52:35.186Z,0.90
2018-06-12T22:55:02.668Z,1.10
2018-06-12T22:57:30.052Z,1.07
2018-06-12T22:59:57.415Z,0.90
2018-06-12T23:02:25.007Z,1.10
2018-06-12T23:04:52.465Z,0.83
2018-06-12T23:07:20.013Z,1.00
2018-06-12T23:09:47.403Z,0.80
2018-06-12T23:12:14.785Z,0.90
2018-06-12T23:14:42.155Z,1.10
2018-06-12T23:17:09.816Z,1.10
2018-06-12T23:19:42.760Z,1.20
2018-06-12T23:22:10.219Z,1.10
2018-06-12T23:24:37.615Z,0.97
2018-06-12T23:27:05.145Z,1.00
2018-06-12T23:29:32.516Z,1.00
2018-06-12T23:31:59.907Z,1.63
2018-06-12T23:34:27.495Z,0.90
2018-06-12T23:36:56.239Z,0.93
2018-06-12T23:39:23.663Z,1.07
2018-06-12T23:41:51.175Z,1.00
2018-06-12T23:44:18.596Z,0.87
2018-06-12T23:46:46.007Z,1.00
2018-06-12T23:49:13.375Z,1.10
2018-06-12T23:51:40.911Z,1.10
2018-06-12T23:54:08.283Z,1.30
2018-06-12T23:56:35.851Z,1.17
2018-06-12T23:59:03.279Z,1.07
